KAND/AND METAR and TAF weather

Enter ICAO airport designator
Station Type Date Time Source
KAND METAR 2021/09/25 02:56 UTC NOAA

KAND 250256Z AUTO 00000KT 10SM CLR 14/13 A3011 RMK AO2 SLP189 T01440128 51010


Station Type Date Time Source
KAND Decoded METAR 2021/09/25 02:56 UTC NOAA

ANDERSON COUNTY AIRPORT, SC, United States (KAND) 34-30N 82-43W 239M
Sep 24, 2021 - 10:56 PM EDT / 2021.09.25 0256 UTC
Wind: Calm:0
Visibility: 10 mile(s):0
Sky conditions: clear
Temperature: 57.9 F (14.4 C)
Dew Point: 55.0 F (12.8 C)
Relative Humidity: 90%
Pressure (altimeter): 30.11 in. Hg (1019 hPa)
Pressure tendency: 0.03 inches (1.0 hPa) higher than three hours ago
ob: KAND 250256Z AUTO 00000KT 10SM CLR 14/13 A3011 RMK AO2 SLP189 T01440128 51010
cycle: 3

Station Type Date Time Source
KAND TAF 2021/09/24 18:33 UTC NOAA

TAF KAND 241730Z 2418/2518 13005KT P6SM SKC
FM250100 VRB02KT P6SM SKC
FM251500 26005KT P6SM SCT250

Example: see airport list